createdAt,value
2018-02-11T00:00:53.175Z,86.6
2018-02-11T00:01:54.770Z,87.0
2018-02-11T00:02:56.371Z,86.8
2018-02-11T00:03:57.972Z,86.9
2018-02-11T00:04:59.577Z,86.8
2018-02-11T00:06:01.182Z,86.8
2018-02-11T00:07:02.780Z,87.0
2018-02-11T00:08:04.384Z,86.9
2018-02-11T00:09:05.982Z,86.9
2018-02-11T00:10:07.583Z,86.5
2018-02-11T00:11:09.182Z,87.1
2018-02-11T00:12:10.787Z,87.0
2018-02-11T00:13:12.388Z,86.7
2018-02-11T00:14:13.996Z,86.5
2018-02-11T00:15:15.590Z,86.7
2018-02-11T00:16:17.191Z,86.6
2018-02-11T00:17:18.799Z,86.9
2018-02-11T00:18:20.398Z,86.8
2018-02-11T00:19:21.995Z,86.7
2018-02-11T00:20:23.596Z,87.0
2018-02-11T00:21:25.203Z,86.9
2018-02-11T00:22:26.800Z,86.9
2018-02-11T00:23:28.406Z,86.9
2018-02-11T00:24:30.005Z,87.2
2018-02-11T00:25:31.608Z,86.8
2018-02-11T00:26:33.209Z,86.9
2018-02-11T00:27:34.808Z,87.0
2018-02-11T00:28:36.415Z,86.6
2018-02-11T00:29:38.017Z,86.8
2018-02-11T00:30:39.614Z,87.9
2018-02-11T00:31:41.881Z,87.5
2018-02-11T00:32:43.484Z,87.3
2018-02-11T00:33:45.083Z,87.3
2018-02-11T00:34:46.684Z,87.3
2018-02-11T00:35:48.289Z,87.8
2018-02-11T00:36:49.897Z,87.4
2018-02-11T00:37:51.485Z,86.8
2018-02-11T00:38:53.090Z,87.5
2018-02-11T00:39:54.687Z,87.5
2018-02-11T00:40:56.288Z,87.5
2018-02-11T00:41:57.896Z,87.1
2018-02-11T00:42:59.500Z,86.8
2018-02-11T00:44:01.096Z,86.9
2018-02-11T00:45:02.694Z,86.7
2018-02-11T00:46:04.300Z,86.7
2018-02-11T00:47:05.904Z,86.7
2018-02-11T00:48:07.502Z,87.7
2018-02-11T00:49:09.110Z,87.6
2018-02-11T00:50:10.710Z,87.5
2018-02-11T00:51:12.314Z,87.6
2018-02-11T00:52:13.909Z,87.6
2018-02-11T00:53:15.516Z,87.2
2018-02-11T00:54:17.114Z,87.3
2018-02-11T00:55:18.719Z,87.5
2018-02-11T00:56:20.321Z,87.5
2018-02-11T00:57:21.927Z,87.6
2018-02-11T00:58:23.521Z,87.6
2018-02-11T00:59:25.126Z,87.3
2018-02-11T01:00:26.726Z,87.9
2018-02-11T01:01:28.328Z,87.6
2018-02-11T01:02:29.927Z,87.8
2018-02-11T01:03:31.529Z,87.9
2018-02-11T01:04:33.134Z,87.9
2018-02-11T01:05:34.730Z,88.3
2018-02-11T01:06:36.335Z,87.9
2018-02-11T01:07:37.932Z,88.1
2018-02-11T01:08:39.536Z,88.1
2018-02-11T01:09:41.134Z,88.5
2018-02-11T01:10:42.740Z,88.8
2018-02-11T01:11:44.341Z,88.8
2018-02-11T01:12:45.994Z,89.0
2018-02-11T01:13:47.542Z,89.4
2018-02-11T01:14:49.146Z,89.0
2018-02-11T01:15:50.745Z,90.0
2018-02-11T01:16:52.349Z,90.1
2018-02-11T01:17:53.949Z,90.1
2018-02-11T01:18:55.554Z,90.3
2018-02-11T01:19:57.156Z,91.1
2018-02-11T01:20:58.752Z,90.6
2018-02-11T01:22:00.352Z,91.1
2018-02-11T01:23:01.958Z,91.0
2018-02-11T01:24:03.561Z,90.8
2018-02-11T01:25:05.161Z,91.5
2018-02-11T01:26:06.762Z,91.6
2018-02-11T01:27:08.365Z,91.5
2018-02-11T01:28:09.966Z,92.0
2018-02-11T01:29:11.563Z,92.1
2018-02-11T01:30:13.163Z,92.2
2018-02-11T01:31:14.768Z,91.7
2018-02-11T01:32:16.372Z,92.9
2018-02-11T01:33:17.970Z,92.4
2018-02-11T01:34:19.568Z,91.8
2018-02-11T01:35:21.173Z,92.0
2018-02-11T01:36:22.770Z,91.9
2018-02-11T01:37:24.377Z,92.5
2018-02-11T01:38:25.980Z,92.3
2018-02-11T01:39:27.579Z,92.5
2018-02-11T01:40:29.178Z,92.5
2018-02-11T01:41:30.783Z,92.0
2018-02-11T01:42:32.382Z,92.6
2018-02-11T01:43:33.982Z,92.5
2018-02-11T01:44:35.585Z,92.5
2018-02-11T01:45:37.187Z,93.0
2018-02-11T01:46:38.788Z,92.9
2018-02-11T01:47:40.387Z,92.7
2018-02-11T01:48:41.988Z,92.9
2018-02-11T01:49:43.597Z,93.6
2018-02-11T01:50:45.195Z,92.7
2018-02-11T01:51:46.794Z,92.7
2018-02-11T01:52:48.393Z,93.0
2018-02-11T01:53:49.995Z,92.9
2018-02-11T01:54:51.601Z,93.2
2018-02-11T01:55:53.198Z,93.0
2018-02-11T01:56:54.802Z,93.0
2018-02-11T01:57:56.399Z,92.8
2018-02-11T01:58:57.997Z,93.2
2018-02-11T01:59:59.597Z,93.6
2018-02-11T02:01:01.200Z,93.6
2018-02-11T02:02:02.805Z,93.3
2018-02-11T02:03:04.405Z,93.3
2018-02-11T02:04:06.001Z,93.7
2018-02-11T02:05:07.600Z,93.3
2018-02-11T02:06:09.207Z,93.8
2018-02-11T02:07:10.809Z,93.5
2018-02-11T02:08:12.411Z,93.8
2018-02-11T02:09:14.016Z,93.7
2018-02-11T02:10:15.619Z,93.6
2018-02-11T02:11:17.216Z,93.3
2018-02-11T02:12:18.821Z,93.8
2018-02-11T02:13:20.416Z,93.7
2018-02-11T02:14:22.020Z,94.0
2018-02-11T02:15:23.625Z,93.8
2018-02-11T02:16:25.230Z,94.2
2018-02-11T02:17:26.830Z,94.4
2018-02-11T02:18:28.428Z,94.1
2018-02-11T02:19:30.031Z,94.6
2018-02-11T02:20:31.630Z,94.2
2018-02-11T02:21:33.235Z,94.2
2018-02-11T02:22:34.834Z,94.7
2018-02-11T02:23:36.440Z,95.0
2018-02-11T02:24:38.036Z,94.6
2018-02-11T02:25:39.640Z,94.9
2018-02-11T02:26:41.241Z,94.7
2018-02-11T02:27:42.840Z,94.9
2018-02-11T02:28:44.444Z,94.7
2018-02-11T02:29:46.572Z,94.7
2018-02-11T02:30:48.179Z,94.5
2018-02-11T02:31:49.772Z,94.6
2018-02-11T02:32:51.377Z,94.6
2018-02-11T02:33:52.976Z,94.6
2018-02-11T02:34:54.579Z,94.7
2018-02-11T02:35:56.176Z,94.5
2018-02-11T02:36:57.785Z,94.7
2018-02-11T02:37:59.387Z,94.6
2018-02-11T02:39:00.982Z,94.6
2018-02-11T02:40:02.580Z,94.7
2018-02-11T02:41:04.181Z,94.4
2018-02-11T02:42:05.784Z,94.6
2018-02-11T02:43:07.386Z,94.6
2018-02-11T02:44:08.995Z,95.6
2018-02-11T02:45:10.592Z,94.6
2018-02-11T02:46:12.190Z,94.6
2018-02-11T02:47:13.792Z,94.7
2018-02-11T02:48:15.393Z,95.0
2018-02-11T02:49:16.997Z,94.6
2018-02-11T02:50:18.598Z,94.6
2018-02-11T02:51:20.199Z,94.6
2018-02-11T02:52:21.804Z,94.7
2018-02-11T02:53:23.401Z,94.9
2018-02-11T02:54:25.005Z,94.6
2018-02-11T02:55:26.601Z,94.6
2018-02-11T02:56:28.205Z,94.6
2018-02-11T02:57:29.803Z,94.6
2018-02-11T02:58:31.404Z,94.4
2018-02-11T02:59:33.016Z,94.7
2018-02-11T03:00:34.609Z,94.6
2018-02-11T03:01:36.205Z,95.4
2018-02-11T03:02:37.802Z,95.2
2018-02-11T03:03:39.401Z,94.7
2018-02-11T03:04:40.999Z,95.4
2018-02-11T03:05:42.609Z,94.5
2018-02-11T03:06:44.212Z,95.5
2018-02-11T03:07:45.809Z,94.6
2018-02-11T03:08:47.411Z,94.9
2018-02-11T03:09:49.016Z,94.5
2018-02-11T03:10:50.618Z,94.8
2018-02-11T03:11:52.211Z,94.7
2018-02-11T03:12:53.814Z,94.4
2018-02-11T03:13:55.421Z,95.1
2018-02-11T03:14:57.023Z,95.0
2018-02-11T03:15:58.619Z,94.7
2018-02-11T03:17:00.220Z,94.4
2018-02-11T03:18:01.816Z,94.3
2018-02-11T03:19:03.424Z,94.6
2018-02-11T03:20:05.028Z,94.8
2018-02-11T03:21:06.629Z,94.3
2018-02-11T03:22:08.231Z,94.4
2018-02-11T03:23:09.828Z,94.5
2018-02-11T03:24:11.430Z,93.9
2018-02-11T03:25:13.034Z,94.4
2018-02-11T03:26:14.632Z,94.6
2018-02-11T03:27:16.234Z,94.7
2018-02-11T03:28:17.840Z,94.4
2018-02-11T03:29:19.442Z,95.0
2018-02-11T03:30:21.038Z,94.8
2018-02-11T03:31:22.650Z,94.8
2018-02-11T03:32:24.240Z,95.6
2018-02-11T03:33:25.839Z,94.4
2018-02-11T03:34:27.439Z,94.8
2018-02-11T03:35:29.041Z,94.4
2018-02-11T03:36:30.644Z,94.5
2018-02-11T03:37:32.242Z,95.3
2018-02-11T03:38:33.847Z,94.7
2018-02-11T03:39:35.447Z,94.1
2018-02-11T03:40:37.046Z,94.8
2018-02-11T03:41:38.651Z,94.7
2018-02-11T03:42:40.250Z,94.8
2018-02-11T03:43:41.854Z,94.4
2018-02-11T03:44:43.451Z,94.3
2018-02-11T03:45:45.055Z,94.5
2018-02-11T03:46:46.653Z,94.5
2018-02-11T03:47:48.258Z,94.7
2018-02-11T03:48:49.857Z,94.1
2018-02-11T03:49:51.464Z,94.6
2018-02-11T03:50:53.066Z,94.4
2018-02-11T03:51:54.668Z,94.3
2018-02-11T03:52:56.268Z,94.5
2018-02-11T03:53:57.870Z,94.8
2018-02-11T03:54:59.468Z,94.4
2018-02-11T03:56:01.070Z,94.7
2018-02-11T03:57:02.677Z,94.6
2018-02-11T03:58:04.274Z,95.1
2018-02-11T03:59:05.879Z,95.6
2018-02-11T04:00:07.475Z,95.3
2018-02-11T04:01:09.081Z,94.9
2018-02-11T04:02:10.680Z,94.4
2018-02-11T04:03:12.286Z,95.6
2018-02-11T04:04:13.895Z,95.6
2018-02-11T04:05:15.486Z,95.0
2018-02-11T04:06:17.086Z,95.4
2018-02-11T04:07:18.689Z,95.2
2018-02-11T04:08:20.294Z,95.6
2018-02-11T04:09:21.891Z,95.3
2018-02-11T04:10:23.494Z,95.9
2018-02-11T04:11:25.100Z,95.5
2018-02-11T04:12:26.696Z,95.6
2018-02-11T04:13:28.299Z,95.5
2018-02-11T04:14:29.896Z,95.9
2018-02-11T04:15:31.502Z,95.5
2018-02-11T04:16:33.100Z,95.9
2018-02-11T04:17:34.708Z,95.7
2018-02-11T04:18:36.306Z,95.6
2018-02-11T04:19:37.910Z,95.6
2018-02-11T04:20:39.512Z,95.8
2018-02-11T04:21:41.110Z,95.6
2018-02-11T04:22:42.708Z,96.0
2018-02-11T04:23:44.314Z,95.4
2018-02-11T04:24:45.917Z,95.7
2018-02-11T04:25:47.518Z,95.6
2018-02-11T04:26:49.113Z,95.3
2018-02-11T04:27:50.718Z,95.6
2018-02-11T04:28:52.322Z,95.6
2018-02-11T04:29:53.922Z,95.8
2018-02-11T04:30:55.527Z,96.0
2018-02-11T04:31:57.126Z,95.6
2018-02-11T04:32:58.729Z,95.7
2018-02-11T04:34:00.323Z,95.6
2018-02-11T04:35:01.930Z,95.7
2018-02-11T04:36:03.527Z,96.0
2018-02-11T04:37:05.129Z,95.3
2018-02-11T04:38:06.728Z,95.9
2018-02-11T04:39:08.332Z,95.5
2018-02-11T04:40:09.933Z,95.1
2018-02-11T04:41:11.537Z,95.7
2018-02-11T04:42:13.133Z,95.0
2018-02-11T04:43:14.736Z,95.3
2018-02-11T04:44:16.333Z,95.0
2018-02-11T04:45:17.940Z,95.2
2018-02-11T04:46:19.537Z,95.3
2018-02-11T04:47:21.141Z,95.2
2018-02-11T04:48:22.743Z,95.3
2018-02-11T04:49:24.345Z,95.1
2018-02-11T04:50:25.939Z,95.2
2018-02-11T04:51:27.539Z,94.7
2018-02-11T04:52:29.145Z,95.0
2018-02-11T04:53:30.749Z,94.8
2018-02-11T04:54:32.350Z,95.0
2018-02-11T04:55:33.948Z,95.3
2018-02-11T04:56:35.550Z,94.7
2018-02-11T04:57:37.153Z,94.8
2018-02-11T04:58:38.751Z,94.9
2018-02-11T04:59:40.353Z,95.0
2018-02-11T05:00:41.960Z,95.2
2018-02-11T05:01:43.560Z,95.7
2018-02-11T05:02:45.161Z,94.7
2018-02-11T05:03:46.762Z,95.0
2018-02-11T05:04:48.362Z,94.7
2018-02-11T05:05:49.961Z,94.8
2018-02-11T05:06:51.568Z,95.0
2018-02-11T05:07:53.177Z,95.0
2018-02-11T05:08:54.771Z,94.9
2018-02-11T05:09:56.371Z,94.8
2018-02-11T05:10:57.969Z,95.0
2018-02-11T05:11:59.570Z,94.8
2018-02-11T05:13:01.876Z,94.6
2018-02-11T05:14:04.424Z,94.8
2018-02-11T05:15:06.023Z,94.8
2018-02-11T05:16:07.626Z,94.7
2018-02-11T05:17:09.228Z,95.0
2018-02-11T05:18:10.829Z,95.0
2018-02-11T05:19:12.425Z,95.0
2018-02-11T05:20:14.027Z,95.0
2018-02-11T05:21:15.631Z,94.4
2018-02-11T05:22:17.235Z,95.0
2018-02-11T05:23:18.834Z,94.4
2018-02-11T05:24:20.431Z,95.2
2018-02-11T05:25:22.035Z,95.0
2018-02-11T05:26:23.633Z,95.0
2018-02-11T05:27:25.236Z,95.2
2018-02-11T05:28:26.835Z,95.0
2018-02-11T05:29:28.441Z,94.7
2018-02-11T05:30:30.040Z,95.0
2018-02-11T05:31:31.641Z,94.8
2018-02-11T05:32:33.241Z,94.6
2018-02-11T05:33:34.844Z,94.8
2018-02-11T05:34:36.441Z,94.1
2018-02-11T05:35:38.047Z,94.2
2018-02-11T05:36:39.645Z,94.4
2018-02-11T05:37:41.253Z,94.2
2018-02-11T05:38:42.847Z,93.9
2018-02-11T05:39:44.450Z,94.2
2018-02-11T05:40:46.047Z,94.4
2018-02-11T05:41:47.651Z,94.1
2018-02-11T05:42:49.255Z,94.5
2018-02-11T05:43:50.854Z,94.1
2018-02-11T05:44:52.464Z,94.0
2018-02-11T05:45:54.058Z,94.4
2018-02-11T05:46:55.660Z,94.2
2018-02-11T05:47:57.260Z,93.7
2018-02-11T05:48:58.869Z,94.1
2018-02-11T05:50:00.460Z,93.9
2018-02-11T05:51:02.077Z,94.0
2018-02-11T05:52:03.676Z,94.0
2018-02-11T05:53:05.278Z,93.9
2018-02-11T05:54:06.874Z,93.9
2018-02-11T05:55:08.477Z,93.9
2018-02-11T05:56:10.074Z,93.9
2018-02-11T05:57:11.680Z,94.2
2018-02-11T05:58:13.280Z,94.2
2018-02-11T05:59:14.885Z,93.8
2018-02-11T06:00:16.482Z,93.5
2018-02-11T06:01:18.082Z,93.8
2018-02-11T06:02:19.684Z,93.8
2018-02-11T06:03:21.291Z,93.2
2018-02-11T06:04:22.884Z,93.7
2018-02-11T06:05:24.484Z,93.6
2018-02-11T06:06:26.090Z,94.0
2018-02-11T06:07:27.693Z,93.7
2018-02-11T06:08:29.287Z,93.9
2018-02-11T06:09:30.887Z,94.1
2018-02-11T06:10:32.492Z,93.8
2018-02-11T06:11:34.097Z,93.8
2018-02-11T06:12:35.695Z,93.8
2018-02-11T06:13:37.297Z,93.6
2018-02-11T06:14:38.900Z,93.4
2018-02-11T06:15:40.500Z,93.8
2018-02-11T06:16:42.098Z,93.3
2018-02-11T06:17:43.699Z,93.3
2018-02-11T06:18:45.298Z,93.7
2018-02-11T06:19:46.903Z,93.6
2018-02-11T06:20:48.506Z,93.1
2018-02-11T06:21:50.105Z,93.5
2018-02-11T06:22:51.708Z,93.4
2018-02-11T06:23:53.311Z,93.5
2018-02-11T06:24:54.908Z,93.8
2018-02-11T06:25:56.513Z,93.3
2018-02-11T06:26:58.111Z,93.4
2018-02-11T06:27:59.716Z,93.5
2018-02-11T06:29:01.313Z,93.2
2018-02-11T06:30:02.916Z,93.8
2018-02-11T06:31:04.512Z,93.7
2018-02-11T06:32:06.117Z,93.5
2018-02-11T06:33:07.715Z,93.7
2018-02-11T06:34:09.324Z,93.1
2018-02-11T06:35:10.927Z,93.4
2018-02-11T06:36:12.531Z,93.6
2018-02-11T06:37:14.139Z,93.4
2018-02-11T06:38:15.739Z,93.1
2018-02-11T06:39:18.022Z,93.4
2018-02-11T06:40:18.892Z,93.6
2018-02-11T06:41:20.499Z,93.5
2018-02-11T06:42:22.098Z,93.4
2018-02-11T06:43:23.702Z,92.7
2018-02-11T06:44:25.308Z,93.2
2018-02-11T06:45:26.914Z,93.8
2018-02-11T06:46:28.512Z,93.1
2018-02-11T06:47:30.199Z,93.6
2018-02-11T06:48:32.577Z,93.5
2018-02-11T06:49:34.214Z,93.1
2018-02-11T06:50:35.817Z,93.5
2018-02-11T06:51:37.421Z,93.6
2018-02-11T06:52:39.022Z,93.8
2018-02-11T06:53:40.636Z,93.6
2018-02-11T06:54:42.226Z,93.3
2018-02-11T06:55:43.832Z,93.8
2018-02-11T06:56:45.440Z,93.2
2018-02-11T06:57:47.038Z,93.5
2018-02-11T06:58:48.645Z,93.3
2018-02-11T06:59:50.245Z,93.7
2018-02-11T07:00:51.847Z,93.2
2018-02-11T07:01:53.449Z,93.5
2018-02-11T07:02:55.052Z,93.4
2018-02-11T07:03:56.659Z,93.3
2018-02-11T07:04:58.273Z,93.5
2018-02-11T07:05:59.877Z,93.8
2018-02-11T07:07:02.122Z,93.4
2018-02-11T07:08:03.727Z,93.5
2018-02-11T07:09:05.329Z,93.5
2018-02-11T07:10:06.938Z,93.5
2018-02-11T07:11:08.549Z,93.2
2018-02-11T07:12:10.172Z,93.8
2018-02-11T07:13:11.772Z,93.3
2018-02-11T07:14:13.380Z,93.1
2018-02-11T07:15:14.985Z,92.7
2018-02-11T07:16:16.594Z,93.0
2018-02-11T07:17:18.192Z,93.3
2018-02-11T07:18:19.802Z,93.1
2018-02-11T07:19:21.408Z,93.3
2018-02-11T07:20:23.017Z,93.8
2018-02-11T07:21:24.625Z,93.3
2018-02-11T07:22:26.225Z,93.5
2018-02-11T07:23:27.829Z,92.5
2018-02-11T07:24:29.433Z,93.4
2018-02-11T07:25:31.044Z,93.0
2018-02-11T07:26:32.646Z,93.5
2018-02-11T07:27:34.247Z,93.2
2018-02-11T07:28:35.855Z,93.0
2018-02-11T07:29:37.458Z,93.2
2018-02-11T07:30:39.063Z,93.1
2018-02-11T07:31:40.667Z,92.5
2018-02-11T07:32:42.276Z,93.2
2018-02-11T07:33:43.882Z,93.3
2018-02-11T07:34:45.483Z,93.8
2018-02-11T07:35:47.085Z,93.2
2018-02-11T07:36:48.694Z,93.7
2018-02-11T07:37:50.299Z,93.5
2018-02-11T07:38:51.904Z,93.5
2018-02-11T07:39:53.512Z,93.8
2018-02-11T07:40:55.117Z,93.2
2018-02-11T07:41:56.724Z,93.5
2018-02-11T07:42:58.330Z,93.7
2018-02-11T07:43:59.938Z,93.5
2018-02-11T07:45:01.539Z,94.1
2018-02-11T07:46:03.149Z,93.3
2018-02-11T07:47:04.750Z,93.6
2018-02-11T07:48:06.356Z,93.5
2018-02-11T07:49:07.957Z,93.5
2018-02-11T07:50:09.563Z,94.3
2018-02-11T07:51:11.166Z,93.2
2018-02-11T07:52:12.773Z,94.1
2018-02-11T07:53:14.375Z,93.8
2018-02-11T07:54:15.980Z,94.3
2018-02-11T07:55:17.584Z,93.5
2018-02-11T07:56:19.192Z,93.7
2018-02-11T07:57:20.796Z,93.7
2018-02-11T07:58:22.404Z,93.4
2018-02-11T07:59:24.006Z,93.8
2018-02-11T08:00:25.612Z,93.7
2018-02-11T08:01:27.217Z,93.9
2018-02-11T08:02:28.820Z,94.5
2018-02-11T08:03:30.428Z,93.3
2018-02-11T08:04:32.028Z,93.6
2018-02-11T08:05:33.638Z,93.8
2018-02-11T08:06:35.242Z,93.8
2018-02-11T08:07:36.855Z,94.0
2018-02-11T08:08:38.462Z,94.1
2018-02-11T08:09:40.068Z,94.2
2018-02-11T08:10:41.673Z,94.6
2018-02-11T08:11:43.278Z,93.9
2018-02-11T08:12:44.884Z,94.5
2018-02-11T08:13:46.490Z,94.2
2018-02-11T08:14:48.092Z,94.1
2018-02-11T08:15:49.703Z,94.2
2018-02-11T08:16:51.303Z,93.7
2018-02-11T08:17:52.907Z,94.4
2018-02-11T08:18:54.515Z,94.3
2018-02-11T08:19:56.121Z,93.7
2018-02-11T08:20:57.734Z,94.3
2018-02-11T08:21:59.384Z,94.3
2018-02-11T08:23:00.987Z,93.9
2018-02-11T08:24:02.590Z,94.4
2018-02-11T08:25:04.197Z,94.4
2018-02-11T08:26:05.805Z,94.5
2018-02-11T08:27:07.415Z,94.2
2018-02-11T08:28:09.018Z,94.4
2018-02-11T08:29:10.630Z,94.3
2018-02-11T08:30:12.234Z,94.5
2018-02-11T08:31:13.844Z,94.4
2018-02-11T08:32:15.447Z,94.5
2018-02-11T08:33:17.052Z,94.3
2018-02-11T08:34:18.656Z,94.5
2018-02-11T08:35:20.264Z,94.4
2018-02-11T08:36:21.867Z,93.4
2018-02-11T08:37:23.477Z,93.8
2018-02-11T08:38:25.078Z,94.6
2018-02-11T08:39:26.687Z,94.5
2018-02-11T08:40:28.288Z,94.6
2018-02-11T08:41:29.912Z,94.3
2018-02-11T08:42:31.516Z,94.4
2018-02-11T08:43:33.125Z,94.2
2018-02-11T08:44:34.730Z,93.5
2018-02-11T08:45:36.382Z,93.6
2018-02-11T08:46:38.064Z,93.5
2018-02-11T08:47:39.708Z,93.7
2018-02-11T08:48:41.273Z,93.5
2018-02-11T08:49:42.875Z,93.6
2018-02-11T08:50:44.486Z,94.5
2018-02-11T08:51:46.094Z,94.5
2018-02-11T08:52:47.701Z,93.8
2018-02-11T08:53:49.303Z,94.0
2018-02-11T08:54:50.913Z,93.9
2018-02-11T08:55:52.528Z,93.3
2018-02-11T08:56:54.135Z,93.6
2018-02-11T08:57:55.751Z,94.0
2018-02-11T08:58:57.359Z,94.4
2018-02-11T08:59:58.961Z,94.5
2018-02-11T09:01:00.564Z,94.6
2018-02-11T09:02:02.175Z,93.7
2018-02-11T09:03:03.779Z,94.0
2018-02-11T09:04:05.432Z,93.5
2018-02-11T09:05:06.984Z,93.4
2018-02-11T09:06:08.595Z,93.5
2018-02-11T09:07:10.197Z,93.4
2018-02-11T09:08:11.800Z,93.7
2018-02-11T09:09:13.400Z,93.7
2018-02-11T09:10:15.012Z,93.9
2018-02-11T09:11:16.617Z,94.2
2018-02-11T09:12:18.221Z,93.7
2018-02-11T09:13:19.826Z,94.4
2018-02-11T09:14:21.435Z,93.9
2018-02-11T09:15:23.036Z,93.5
2018-02-11T09:16:24.643Z,93.8
2018-02-11T09:17:26.244Z,93.9
2018-02-11T09:18:27.856Z,93.7
2018-02-11T09:19:29.458Z,94.6
2018-02-11T09:20:31.071Z,94.3
2018-02-11T09:21:32.673Z,93.9
2018-02-11T09:22:34.279Z,94.0
2018-02-11T09:23:35.882Z,94.6
2018-02-11T09:24:37.493Z,93.9
2018-02-11T09:25:39.096Z,94.7
2018-02-11T09:26:40.707Z,93.6
2018-02-11T09:27:42.312Z,93.6
2018-02-11T09:28:43.918Z,93.7
2018-02-11T09:29:45.522Z,93.9
2018-02-11T09:30:47.870Z,93.9
2018-02-11T09:31:49.483Z,93.6
2018-02-11T09:32:51.085Z,93.8
2018-02-11T09:33:52.691Z,93.9
2018-02-11T09:34:54.300Z,93.9
2018-02-11T09:35:55.904Z,93.8
2018-02-11T09:36:57.505Z,93.8
2018-02-11T09:37:59.110Z,93.9
2018-02-11T09:39:00.722Z,93.9
2018-02-11T09:40:02.335Z,93.7
2018-02-11T09:41:03.935Z,93.6
2018-02-11T09:42:05.547Z,93.7
2018-02-11T09:43:07.150Z,93.7
2018-02-11T09:44:08.760Z,94.1
2018-02-11T09:45:10.362Z,93.9
2018-02-11T09:46:11.974Z,93.8
2018-02-11T09:47:13.582Z,93.8
2018-02-11T09:48:15.188Z,94.3
2018-02-11T09:49:16.802Z,94.6
2018-02-11T09:50:18.429Z,94.7
2018-02-11T09:51:20.013Z,94.7
2018-02-11T09:52:21.619Z,94.5
2018-02-11T09:53:23.230Z,94.5
2018-02-11T09:54:24.838Z,94.6
2018-02-11T09:55:26.443Z,94.8
2018-02-11T09:56:28.054Z,94.5
2018-02-11T09:57:29.657Z,94.6
2018-02-11T09:58:31.263Z,95.0
2018-02-11T09:59:32.873Z,94.9
2018-02-11T10:00:34.482Z,95.2
2018-02-11T10:01:36.088Z,94.6
2018-02-11T10:02:37.696Z,94.7
2018-02-11T10:03:39.308Z,95.1
2018-02-11T10:04:40.952Z,94.8
2018-02-11T10:05:42.522Z,95.2
2018-02-11T10:06:44.126Z,94.9
2018-02-11T10:07:45.737Z,95.1
2018-02-11T10:08:47.348Z,94.9
2018-02-11T10:09:48.953Z,95.7
2018-02-11T10:10:50.560Z,94.7
2018-02-11T10:11:52.168Z,95.0
2018-02-11T10:12:53.778Z,95.2
2018-02-11T10:13:55.380Z,95.9
2018-02-11T10:14:56.987Z,94.7
2018-02-11T10:15:58.596Z,94.9
2018-02-11T10:17:00.208Z,94.8
2018-02-11T10:18:01.815Z,95.2
2018-02-11T10:19:03.419Z,95.1
2018-02-11T10:20:05.029Z,95.3
2018-02-11T10:21:06.637Z,95.7
2018-02-11T10:22:08.242Z,95.3
2018-02-11T10:23:09.854Z,95.7
2018-02-11T10:24:11.461Z,95.9
2018-02-11T10:25:13.074Z,95.1
2018-02-11T10:26:14.678Z,95.7
2018-02-11T10:27:16.290Z,96.4
2018-02-11T10:28:17.894Z,95.6
2018-02-11T10:29:19.500Z,95.3
2018-02-11T10:30:21.113Z,96.1
2018-02-11T10:31:22.716Z,95.3
2018-02-11T10:32:24.331Z,96.3
2018-02-11T10:33:25.933Z,96.3
2018-02-11T10:34:27.542Z,96.1
2018-02-11T10:35:29.147Z,96.3
2018-02-11T10:36:30.758Z,96.3
2018-02-11T10:37:32.363Z,96.6
2018-02-11T10:38:33.976Z,96.5
2018-02-11T10:39:35.587Z,96.2
2018-02-11T10:40:37.195Z,96.0
2018-02-11T10:41:38.806Z,96.0
2018-02-11T10:42:40.416Z,95.3
2018-02-11T10:43:42.026Z,96.0
2018-02-11T10:44:43.641Z,96.6
2018-02-11T10:45:45.248Z,96.0
2018-02-11T10:46:46.857Z,96.2
2018-02-11T10:47:48.479Z,96.2
2018-02-11T10:48:50.086Z,96.7
2018-02-11T10:49:51.696Z,96.7
2018-02-11T10:50:53.312Z,95.9
2018-02-11T10:51:54.919Z,96.2
2018-02-11T10:52:56.531Z,96.9
2018-02-11T10:53:58.142Z,96.1
2018-02-11T10:54:59.745Z,96.0
2018-02-11T10:56:01.352Z,96.6
2018-02-11T10:57:02.960Z,96.2
2018-02-11T10:58:04.584Z,96.1
2018-02-11T10:59:06.192Z,96.4
2018-02-11T11:00:07.801Z,95.9
2018-02-11T11:01:09.415Z,96.5
2018-02-11T11:02:11.025Z,95.6
2018-02-11T11:03:12.633Z,96.3
2018-02-11T11:04:14.242Z,95.9
2018-02-11T11:05:15.853Z,95.8
2018-02-11T11:06:17.463Z,96.7
2018-02-11T11:07:19.093Z,96.3
2018-02-11T11:08:20.702Z,95.6
2018-02-11T11:09:22.308Z,96.8
2018-02-11T11:10:23.922Z,96.5
2018-02-11T11:11:25.528Z,96.6
2018-02-11T11:12:27.138Z,96.0
2018-02-11T11:13:28.749Z,96.0
2018-02-11T11:14:30.365Z,97.2
2018-02-11T11:15:31.977Z,97.0
2018-02-11T11:16:33.583Z,96.6
2018-02-11T11:17:35.196Z,98.7
2018-02-11T11:18:36.812Z,97.6
2018-02-11T11:19:38.425Z,96.4
2018-02-11T11:20:40.037Z,96.6
2018-02-11T11:21:41.648Z,94.4
2018-02-11T11:22:43.262Z,95.0
2018-02-11T11:23:44.879Z,94.6
2018-02-11T11:24:46.488Z,94.0
2018-02-11T11:25:48.104Z,94.3
2018-02-11T11:26:49.726Z,94.3
2018-02-11T11:27:51.343Z,94.1
2018-02-11T11:28:52.956Z,92.4
2018-02-11T11:29:54.648Z,94.2
2018-02-11T11:30:56.327Z,92.6
2018-02-11T11:31:57.918Z,91.7
2018-02-11T11:32:59.536Z,91.7
2018-02-11T11:34:01.148Z,92.1
2018-02-11T11:35:02.773Z,93.0
2018-02-11T11:36:04.390Z,91.8
2018-02-11T11:37:06.002Z,93.7
2018-02-11T11:38:07.616Z,92.6
2018-02-11T11:39:09.223Z,93.4
2018-02-11T11:40:10.843Z,93.0
2018-02-11T11:41:12.454Z,93.9
2018-02-11T11:42:14.067Z,93.6
2018-02-11T11:43:15.683Z,92.9
2018-02-11T11:44:17.294Z,93.3
2018-02-11T11:45:18.902Z,93.5
2018-02-11T11:46:20.517Z,93.9
2018-02-11T11:47:22.128Z,94.5
2018-02-11T11:48:23.738Z,94.3
2018-02-11T11:49:25.353Z,94.7
2018-02-11T11:50:27.563Z,95.5
2018-02-11T11:51:29.173Z,95.5
2018-02-11T11:52:30.784Z,94.9
2018-02-11T11:53:32.396Z,94.9
2018-02-11T11:54:34.005Z,95.4
2018-02-11T11:55:35.614Z,96.1
2018-02-11T11:56:37.224Z,96.8
2018-02-11T11:57:38.835Z,96.1
2018-02-11T11:58:40.447Z,96.1
2018-02-11T11:59:42.061Z,96.8
2018-02-11T12:00:43.670Z,96.9
2018-02-11T12:01:45.285Z,95.3
2018-02-11T12:02:46.895Z,96.9
2018-02-11T12:03:48.501Z,96.9
2018-02-11T12:04:50.116Z,96.3
2018-02-11T12:05:51.729Z,96.8
2018-02-11T12:06:53.336Z,96.6
2018-02-11T12:07:54.949Z,97.9
2018-02-11T12:08:56.568Z,96.8
2018-02-11T12:09:58.181Z,97.9
2018-02-11T12:10:59.788Z,98.0
2018-02-11T12:12:01.402Z,96.6
2018-02-11T12:13:03.018Z,97.3
2018-02-11T12:14:04.624Z,97.2
2018-02-11T12:15:06.231Z,97.5
2018-02-11T12:16:07.848Z,97.9
2018-02-11T12:17:09.460Z,97.4
2018-02-11T12:18:11.071Z,98.4
2018-02-11T12:19:12.678Z,97.8
2018-02-11T12:20:14.295Z,97.1
2018-02-11T12:21:15.901Z,97.3
2018-02-11T12:22:17.514Z,98.1
2018-02-11T12:23:19.122Z,99.0
2018-02-11T12:24:20.736Z,97.4
2018-02-11T12:25:22.350Z,97.8
2018-02-11T12:26:23.965Z,97.8
2018-02-11T12:27:25.571Z,98.2
2018-02-11T12:28:27.262Z,97.2
2018-02-11T12:29:28.878Z,97.9
2018-02-11T12:30:30.483Z,97.0
2018-02-11T12:31:32.093Z,97.2
2018-02-11T12:32:33.700Z,97.8
2018-02-11T12:33:35.315Z,98.4
2018-02-11T12:34:36.925Z,98.3
2018-02-11T12:35:38.537Z,97.7
2018-02-11T12:36:40.145Z,98.1
2018-02-11T12:37:41.771Z,98.1
2018-02-11T12:38:43.378Z,98.2
2018-02-11T12:39:44.992Z,97.9
2018-02-11T12:40:46.603Z,97.5
2018-02-11T12:41:48.218Z,97.5
2018-02-11T12:42:49.821Z,97.7
2018-02-11T12:43:51.434Z,97.1
2018-02-11T12:44:53.040Z,97.6
2018-02-11T12:45:54.655Z,97.6
2018-02-11T12:46:56.266Z,97.0
2018-02-11T12:47:57.878Z,97.1
2018-02-11T12:48:59.487Z,98.1
2018-02-11T12:50:01.099Z,97.7
2018-02-11T12:51:02.749Z,97.3
2018-02-11T12:52:04.329Z,97.7
2018-02-11T12:53:05.941Z,97.6
2018-02-11T12:54:07.552Z,97.3
2018-02-11T12:55:09.159Z,97.2
2018-02-11T12:56:10.773Z,97.0
2018-02-11T12:57:12.382Z,97.5
2018-02-11T12:58:13.988Z,97.2
2018-02-11T12:59:15.595Z,97.4
2018-02-11T13:00:17.212Z,97.2
2018-02-11T13:01:18.825Z,97.2
2018-02-11T13:02:20.432Z,97.5
2018-02-11T13:03:22.042Z,97.4
2018-02-11T13:04:23.654Z,97.2
2018-02-11T13:05:25.264Z,97.1
2018-02-11T13:06:26.868Z,96.9
2018-02-11T13:07:28.481Z,97.3
2018-02-11T13:08:30.089Z,97.5
2018-02-11T13:09:31.699Z,98.1
2018-02-11T13:10:33.305Z,97.9
2018-02-11T13:11:34.915Z,97.0
2018-02-11T13:12:36.522Z,97.3
2018-02-11T13:13:38.129Z,97.1
2018-02-11T13:14:39.743Z,97.4
2018-02-11T13:15:41.349Z,97.9
2018-02-11T13:16:42.964Z,96.9
2018-02-11T13:17:44.569Z,98.2
2018-02-11T13:18:46.181Z,97.8
2018-02-11T13:19:47.783Z,98.0
2018-02-11T13:20:49.395Z,97.4
2018-02-11T13:21:51.005Z,98.4
2018-02-11T13:22:52.612Z,97.8
2018-02-11T13:23:54.219Z,97.6
2018-02-11T13:24:55.829Z,97.8
2018-02-11T13:25:57.438Z,97.8
2018-02-11T13:26:59.090Z,98.5
2018-02-11T13:28:00.649Z,98.3
2018-02-11T13:29:02.262Z,97.8
2018-02-11T13:30:03.874Z,98.1
2018-02-11T13:31:05.485Z,97.8
2018-02-11T13:32:07.097Z,98.0
2018-02-11T13:33:08.699Z,98.2
2018-02-11T13:34:10.311Z,98.3
2018-02-11T13:35:11.916Z,97.6
2018-02-11T13:36:13.527Z,97.6
2018-02-11T13:37:15.132Z,98.2
2018-02-11T13:38:16.741Z,97.8
2018-02-11T13:39:18.353Z,98.4
2018-02-11T13:40:19.962Z,98.2